Jonesboro, Illinois
Current Conditions -  °F | °C
As of 9:53 AM on Sunday 21 Dec 2014 (Local Time) from KCGI Reporting Station
Overcast Overcast  
Wind Chill: 34°   Ceiling: 4300
Heat Index: 38°   Visibility: 7mi
Dew Point: 31°   Wind: 5mph
Humidity: 76%   Direction: 90°E
Pressure: 30.24"   Gusts: NA
Location:  37.45°N, 89.27°W
Report Text: KCGI 211553Z 09004KT 7SM OVC043 03/M01 A3024 RMK AO2 SLP240 T00331006
Loading
Personal Weather Stations






























Interactive Weather Map New forecast layout! Learn more

10-Day Weather Forecast

Advertisements
Track Severe Weather on mobile